Time;durP1;ratioP1;P1;durP2;ratioP2;P2;SDS_P1;SDS_P2;PMS_P1;PMS_P2;Temp;Humidity;BMP_temperature;BMP_pressure;BME280_temperature;BME280_humidity;BME280_pressure;Samples;Min_cycle;Max_cycle;Signal;HPM_P1;HPM_P2
2021/01/12 00:00:33;;;;;;;21.85;15.03;;;;;;;2.54;64.94;101199.13;1772358;79;21641;-44
2021/01/12 00:03:00;;;;;;;23.45;14.68;;;;;;;2.58;64.90;101199.53;1778854;79;21123;-46
2021/01/12 00:05:28;;;;;;;21.80;15.13;;;;;;;2.64;64.83;101203.83;1773829;79;21131;-46
2021/01/12 00:07:57;;;;;;;27.37;17.80;;;;;;;2.66;64.71;101206.00;1780954;79;21130;-42
2021/01/12 00:10:25;;;;;;;25.37;18.00;;;;;;;2.70;64.66;101202.45;1774047;79;21111;-45
2021/01/12 00:12:53;;;;;;;21.70;15.38;;;;;;;2.70;64.52;101201.58;1746834;79;21146;-43
2021/01/12 00:15:21;;;;;;;26.50;16.87;;;;;;;2.67;64.60;101201.18;1735672;81;21154;-44
2021/01/12 00:17:48;;;;;;;24.15;16.35;;;;;;;2.65;64.45;101205.59;1738411;81;21111;-45
2021/01/12 00:20:16;;;;;;;26.50;18.32;;;;;;;2.65;64.29;101202.95;1735662;81;21156;-44
2021/01/12 00:22:44;;;;;;;23.22;15.83;;;;;;;2.65;64.07;101206.91;1734025;81;21582;-42
2021/01/12 00:25:12;;;;;;;23.65;15.65;;;;;;;2.66;64.18;101209.95;1736261;81;21174;-42
2021/01/12 00:27:42;;;;;;;27.05;17.40;;;;;;;2.67;64.15;101205.55;1731703;81;21166;-43
2021/01/12 00:30:10;;;;;;;26.80;18.92;;;;;;;2.64;64.24;101206.92;1731484;81;21189;-44
2021/01/12 00:32:38;;;;;;;31.23;20.10;;;;;;;2.65;64.32;101203.41;1730790;81;21137;-45
2021/01/12 00:35:07;;;;;;;37.83;22.77;;;;;;;2.63;64.25;101206.05;1736890;82;21546;-43
2021/01/12 00:37:34;;;;;;;31.00;20.95;;;;;;;2.64;64.12;101203.83;1733517;81;21654;-45
2021/01/12 00:40:03;;;;;;;33.23;21.70;;;;;;;2.65;64.05;101202.95;1731962;81;21590;-42
2021/01/12 00:42:30;;;;;;;42.70;26.65;;;;;;;2.68;63.97;101201.59;1730263;81;21634;-45
2021/01/12 00:44:58;;;;;;;41.77;23.90;;;;;;;2.71;63.92;101200.22;1734639;81;21145;-42
2021/01/12 00:47:27;;;;;;;31.15;19.77;;;;;;;2.72;63.89;101199.34;1737081;81;21165;-43
2021/01/12 00:49:55;;;;;;;32.08;19.90;;;;;;;2.72;63.84;101193.19;1735366;81;21149;-43
2021/01/12 00:52:23;;;;;;;25.50;17.45;;;;;;;2.71;63.77;101196.27;1730323;81;21638;-44
2021/01/12 00:54:50;;;;;;;23.30;16.17;;;;;;;2.71;63.70;101196.72;1741156;81;22013;-46
2021/01/12 00:57:18;;;;;;;19.10;12.78;;;;;;;2.70;63.38;101197.62;1740483;81;21125;-43
2021/01/12 00:59:46;;;;;;;17.87;12.47;;;;;;;2.71;62.75;101196.72;1736048;81;21182;-42
2021/01/12 01:02:13;;;;;;;18.70;13.58;;;;;;;2.71;62.24;101194.95;1734213;81;21164;-44
2021/01/12 01:04:42;;;;;;;20.15;13.95;;;;;;;2.70;62.18;101197.62;1739248;81;21126;-44
2021/01/12 01:07:09;;;;;;;18.37;12.45;;;;;;;2.70;62.34;101195.00;1736546;81;21165;-43
2021/01/12 01:09:38;;;;;;;19.15;13.85;;;;;;;2.70;62.44;101197.17;1734668;81;21157;-42
2021/01/12 01:12:06;;;;;;;22.52;15.50;;;;;;;2.70;62.38;101198.95;1737522;80;21219;-42
2021/01/12 01:14:34;;;;;;;22.37;15.18;;;;;;;2.68;62.31;101200.27;1747046;80;21164;-44
2021/01/12 01:17:02;;;;;;;22.07;14.78;;;;;;;2.68;62.52;101203.36;1751832;80;21155;-45
2021/01/12 01:19:31;;;;;;;19.60;14.40;;;;;;;2.69;62.67;101205.95;1751893;80;21141;-43
2021/01/12 01:21:59;;;;;;;22.70;16.00;;;;;;;2.72;62.76;101201.09;1749941;80;21112;-41
2021/01/12 01:24:26;;;;;;;23.15;15.40;;;;;;;2.71;62.80;101201.99;1751307;80;21142;-46
2021/01/12 01:26:56;;;;;;;21.87;13.60;;;;;;;2.71;62.74;101200.67;1747563;81;21143;-45
2021/01/12 01:29:23;;;;;;;21.55;14.63;;;;;;;2.73;62.48;101208.11;1750640;80;21771;-44
2021/01/12 01:31:52;;;;;;;20.95;13.60;;;;;;;2.73;62.34;101205.02;1754232;80;22015;-46
2021/01/12 01:34:20;;;;;;;17.62;13.25;;;;;;;2.72;61.87;101205.94;1750349;80;21562;-43
2021/01/12 01:36:48;;;;;;;18.42;12.68;;;;;;;2.72;61.51;101205.94;1755324;80;21142;-44
2021/01/12 01:39:15;;;;;;;18.32;12.78;;;;;;;2.73;61.25;101206.80;1754423;80;21191;-45
2021/01/12 01:41:43;;;;;;;20.90;14.50;;;;;;;2.76;61.13;101197.52;1749895;80;22046;-43
2021/01/12 01:44:10;;;;;;;18.17;12.82;;;;;;;2.77;60.97;101197.94;1750621;80;21157;-44
2021/01/12 01:46:38;;;;;;;23.18;14.50;;;;;;;2.76;60.58;101198.84;1749458;80;21124;-43
2021/01/12 01:49:06;;;;;;;19.30;12.93;;;;;;;2.74;60.24;101194.91;1753714;80;21138;-44
2021/01/12 01:51:34;;;;;;;19.67;12.60;;;;;;;2.72;60.16;101200.66;1752658;80;21138;-43
2021/01/12 01:54:02;;;;;;;16.95;11.35;;;;;;;2.71;60.12;101194.95;1751771;80;21165;-44
2021/01/12 01:56:29;;;;;;;15.93;11.08;;;;;;;2.73;59.75;101197.58;1752860;80;21073;-44
2021/01/12 01:58:57;;;;;;;16.07;10.53;;;;;;;2.72;59.44;101195.81;1717240;81;21182;-44
2021/01/12 02:01:25;;;;;;;13.45;9.23;;;;;;;2.75;59.39;101198.43;1752956;80;21158;-44
2021/01/12 02:04:08;;;;;;;11.43;8.58;;;;;;;2.77;59.00;101201.47;1751543;80;21147;-44
2021/01/12 02:06:37;;;;;;;11.10;7.60;;;;;;;2.79;58.69;101193.52;1748785;80;21453;-45
2021/01/12 02:09:15;;;;;;;10.08;6.90;;;;;;;2.79;58.30;101195.70;1750374;80;21545;-45
2021/01/12 02:11:43;;;;;;;9.03;7.37;;;;;;;2.80;58.00;101184.74;1752404;80;21191;-45
2021/01/12 02:14:16;;;;;;;11.20;8.23;;;;;;;2.81;57.74;101186.47;1737156;79;22249;-43
2021/01/12 02:16:45;;;;;;;10.40;7.20;;;;;;;2.81;57.65;101182.52;1757360;80;21150;-43
2021/01/12 02:19:17;;;;;;;10.78;7.28;;;;;;;2.81;57.47;101180.75;1756702;80;21515;-42
2021/01/12 02:21:54;;;;;;;10.23;7.47;;;;;;;2.83;57.22;101182.51;1758223;80;21135;-43
2021/01/12 02:24:21;;;;;;;10.65;7.35;;;;;;;2.84;56.98;101178.97;1730439;81;21109;-43
2021/01/12 02:26:49;;;;;;;10.43;6.45;;;;;;;2.82;57.06;101172.39;1761391;80;21132;-43
2021/01/12 02:29:17;;;;;;;10.25;7.08;;;;;;;2.76;56.97;101172.05;1757262;80;21138;-44
2021/01/12 02:31:44;;;;;;;9.43;6.50;;;;;;;2.70;57.07;101168.20;1761542;81;21149;-43
2021/01/12 02:34:16;;;;;;;10.78;6.85;;;;;;;2.66;57.05;101160.36;1765171;80;21162;-44
2021/01/12 02:36:44;;;;;;;9.43;6.83;;;;;;;2.68;57.28;101158.58;1757914;80;21138;-43
2021/01/12 02:39:13;;;;;;;9.20;7.22;;;;;;;2.71;57.63;101161.16;1761649;80;21106;-45
2021/01/12 02:41:40;;;;;;;12.33;8.65;;;;;;;2.69;57.71;101158.55;1760681;81;21166;-42
2021/01/12 02:44:22;;;;;;;21.25;14.78;;;;;;;2.69;57.88;101151.09;1758490;81;21130;-43
2021/01/12 02:46:52;;;;;;;21.17;14.83;;;;;;;2.72;57.86;101151.04;1764743;80;21136;-41
2021/01/12 02:49:20;;;;;;;15.55;10.98;;;;;;;2.74;57.84;101145.30;1762186;80;21109;-46
2021/01/12 02:51:47;;;;;;;13.85;9.55;;;;;;;2.72;57.91;101147.98;1765393;80;21144;-44
2021/01/12 02:54:15;;;;;;;14.70;9.50;;;;;;;2.73;58.09;101143.13;1758773;81;21110;-42
2021/01/12 02:56:42;;;;;;;17.15;11.22;;;;;;;2.71;58.20;101140.09;1713311;82;21174;-43
2021/01/12 02:59:10;;;;;;;15.08;10.55;;;;;;;2.66;58.03;101141.48;1753650;80;21166;-43
2021/01/12 03:01:37;;;;;;;11.60;8.60;;;;;;;2.60;57.94;101142.90;1762646;80;21614;-41
2021/01/12 03:04:05;;;;;;;12.80;9.23;;;;;;;2.56;58.26;101140.73;1759523;80;21148;-44
2021/01/12 03:06:33;;;;;;;13.60;8.20;;;;;;;2.55;58.50;101139.02;1762744;80;21158;-46
2021/01/12 03:09:01;;;;;;;13.48;8.25;;;;;;;2.55;58.04;101135.06;1760461;80;21149;-45
2021/01/12 03:11:29;;;;;;;9.80;7.37;;;;;;;2.59;58.28;101134.10;1761286;80;21183;-45
2021/01/12 03:13:58;;;;;;;9.30;6.58;;;;;;;2.64;58.06;101130.54;1756062;80;21119;-46
2021/01/12 03:16:26;;;;;;;9.73;7.12;;;;;;;2.68;58.26;101133.11;1755639;80;21524;-43
2021/01/12 03:18:54;;;;;;;11.35;7.12;;;;;;;2.69;58.53;101121.66;1750417;80;21664;-43
2021/01/12 03:21:21;;;;;;;11.73;8.45;;;;;;;2.70;58.41;101130.02;1752824;80;21622;-45
2021/01/12 03:23:49;;;;;;;12.45;8.30;;;;;;;2.69;58.12;101126.94;1754078;80;21115;-44
2021/01/12 03:26:21;;;;;;;10.43;8.48;;;;;;;2.69;57.81;101125.62;1749163;81;21143;-44
2021/01/12 03:28:49;;;;;;;10.80;7.75;;;;;;;2.71;58.00;101130.42;1751800;80;21648;-42
2021/01/12 03:31:17;;;;;;;10.90;8.20;;;;;;;2.72;58.13;101123.38;1752179;80;21615;-45
2021/01/12 03:33:44;;;;;;;12.50;9.33;;;;;;;2.72;57.93;101121.64;1754533;80;21141;-47
2021/01/12 03:36:12;;;;;;;12.28;7.35;;;;;;;2.75;57.65;101122.04;1749930;80;21167;-46
2021/01/12 03:38:40;;;;;;;10.68;7.60;;;;;;;2.75;57.68;101116.77;1749263;80;21157;-47
2021/01/12 03:41:08;;;;;;;11.48;7.60;;;;;;;2.74;57.79;101113.24;1749923;80;21155;-44
2021/01/12 03:43:35;;;;;;;11.57;8.28;;;;;;;2.75;57.67;101112.37;1748085;80;21425;-46
2021/01/12 03:46:03;;;;;;;10.50;7.50;;;;;;;2.76;57.33;101102.23;1747888;80;22275;-46
2021/01/12 03:48:31;;;;;;;9.88;8.28;;;;;;;2.78;57.27;101102.23;1750292;80;21628;-46
2021/01/12 03:50:58;;;;;;;9.98;7.20;;;;;;;2.80;57.34;101097.36;1750755;80;21411;-45
2021/01/12 03:53:26;;;;;;;13.58;8.88;;;;;;;2.78;57.74;101095.19;1746110;80;21175;-45
2021/01/12 03:55:53;;;;;;;15.03;9.93;;;;;;;2.76;57.34;101092.16;1747888;80;21150;-45
2021/01/12 03:58:21;;;;;;;14.23;10.45;;;;;;;2.72;56.89;101090.45;1747400;80;21143;-44
2021/01/12 04:00:48;;;;;;;13.15;9.10;;;;;;;2.69;56.54;101090.06;1750826;80;21525;-43
2021/01/12 04:03:16;;;;;;;14.78;10.13;;;;;;;2.67;56.63;101083.97;1748306;80;21623;-48
2021/01/12 04:05:43;;;;;;;12.80;8.25;;;;;;;2.68;56.70;101082.20;1749791;80;21140;-44
2021/01/12 04:08:11;;;;;;;12.73;9.33;;;;;;;2.69;56.59;101090.06;1750895;80;21527;-41
2021/01/12 04:10:38;;;;;;;12.35;9.30;;;;;;;2.69;56.48;101083.47;1750356;80;21135;-41
2021/01/12 04:13:06;;;;;;;12.10;9.15;;;;;;;2.67;56.54;101081.77;1749672;80;21142;-46
2021/01/12 04:15:34;;;;;;;15.48;10.85;;;;;;;2.66;56.67;101083.98;1750043;80;21135;-41
2021/01/12 04:18:02;;;;;;;16.93;11.05;;;;;;;2.67;56.86;101085.29;1726450;81;21121;-43
2021/01/12 04:20:29;;;;;;;17.87;11.48;;;;;;;2.66;57.19;101081.35;1727828;80;21162;-42
2021/01/12 04:22:56;;;;;;;16.37;10.85;;;;;;;2.66;57.60;101081.35;1726163;80;21169;-46
2021/01/12 04:25:24;;;;;;;14.18;10.88;;;;;;;2.65;57.97;101073.91;1727720;80;21148;-45
2021/01/12 04:27:52;;;;;;;12.95;10.15;;;;;;;2.67;58.21;101072.13;1727285;80;21106;-43
2021/01/12 04:30:20;;;;;;;14.35;10.58;;;;;;;2.67;58.34;101073.44;1726210;80;21163;-44
2021/01/12 04:32:47;;;;;;;14.68;10.90;;;;;;;2.65;58.58;101072.59;1729838;80;21138;-46
2021/01/12 04:35:15;;;;;;;14.90;11.20;;;;;;;2.63;58.70;101071.73;1726436;80;21178;-44
2021/01/12 04:37:43;;;;;;;14.73;10.95;;;;;;;2.64;58.96;101074.78;1727502;80;21158;-44
2021/01/12 04:40:11;;;;;;;16.60;11.73;;;;;;;2.65;59.19;101069.95;1725934;80;21474;-46
2021/01/12 04:42:38;;;;;;;15.15;11.15;;;;;;;2.65;59.50;101067.78;1729139;80;21158;-46
2021/01/12 04:45:07;;;;;;;16.12;11.88;;;;;;;2.64;59.70;101062.93;1728184;80;21157;-45
2021/01/12 04:47:35;;;;;;;13.70;10.53;;;;;;;2.65;59.95;101069.95;1729017;80;21146;-45
2021/01/12 04:50:05;;;;;;;14.18;11.28;;;;;;;2.65;60.11;101069.95;1727255;80;21173;-45
2021/01/12 04:52:51;;;;;;;15.72;10.98;;;;;;;2.67;60.23;101067.28;1727299;80;21566;-46
2021/01/12 04:55:20;;;;;;;15.23;11.30;;;;;;;2.69;60.41;101061.54;1726201;80;22151;-44
2021/01/12 04:57:48;;;;;;;16.65;12.53;;;;;;;2.70;60.51;101065.48;1726980;80;21598;-45
2021/01/12 05:00:23;;;;;;;17.12;12.00;;;;;;;2.65;60.71;101063.38;1727629;80;21122;-43
2021/01/12 05:02:59;;;;;;;16.42;12.68;;;;;;;2.59;60.95;101069.58;1726299;81;21138;-45
2021/01/12 05:05:31;;;;;;;15.20;11.33;;;;;;;2.56;61.17;101067.45;1726585;80;21876;-45
2021/01/12 05:08:04;;;;;;;17.32;12.82;;;;;;;2.56;61.37;101070.95;1727597;80;21140;-44
2021/01/12 05:10:43;;;;;;;17.95;12.35;;;;;;;2.56;61.51;101067.45;1725716;80;21145;-45
2021/01/12 05:13:12;;;;;;;18.98;13.72;;;;;;;2.55;61.62;101067.05;1726061;80;21134;-43
2021/01/12 05:15:40;;;;;;;16.67;13.10;;;;;;;2.54;61.78;101069.24;1728528;80;21113;-44
2021/01/12 05:18:09;;;;;;;18.45;13.00;;;;;;;2.52;61.96;101061.81;1766212;79;21415;-44
2021/01/12 05:20:44;;;;;;;19.98;13.53;;;;;;;2.50;62.13;101063.63;1731848;81;21589;-43
2021/01/12 05:23:14;;;;;;;18.87;13.20;;;;;;;2.47;62.34;101067.59;1765313;79;21118;-44
2021/01/12 05:25:41;;;;;;;18.15;13.38;;;;;;;2.46;62.48;101069.36;1767241;79;21130;-49
2021/01/12 05:28:11;;;;;;;18.87;13.48;;;;;;;2.46;62.64;101069.82;1768238;79;21106;-50
2021/01/12 05:30:38;;;;;;;20.05;14.93;;;;;;;2.45;62.77;101075.53;1770646;79;21644;-42
2021/01/12 05:33:06;;;;;;;19.35;13.60;;;;;;;2.45;62.89;101079.48;1764041;79;21605;-40
2021/01/12 05:35:38;;;;;;;18.92;13.83;;;;;;;2.46;62.94;101079.03;1767728;79;21610;-48
2021/01/12 05:38:08;;;;;;;19.67;14.35;;;;;;;2.46;62.98;101079.89;1762854;79;21140;-46
2021/01/12 05:40:38;;;;;;;18.75;13.22;;;;;;;2.47;63.06;101084.70;1767179;79;21122;-49
2021/01/12 05:43:12;;;;;;;15.43;11.70;;;;;;;2.48;63.07;101075.94;1702044;82;21150;-40
2021/01/12 05:45:43;;;;;;;15.38;11.40;;;;;;;2.47;63.08;101083.39;1769154;79;21141;-43
2021/01/12 05:48:11;;;;;;;16.48;11.55;;;;;;;2.48;62.97;101090.42;1705409;82;21142;-44
2021/01/12 05:50:39;;;;;;;17.52;12.43;;;;;;;2.47;63.01;101089.55;1769426;79;21114;-43
2021/01/12 05:53:15;;;;;;;17.70;12.80;;;;;;;2.48;63.11;101089.10;1769358;80;21146;-44
2021/01/12 05:55:44;;;;;;;15.68;11.50;;;;;;;2.48;63.07;101084.70;1761492;79;21135;-44
2021/01/12 05:58:24;;;;;;;16.15;11.28;;;;;;;2.49;63.10;101089.51;1762654;79;21135;-44
2021/01/12 06:00:51;;;;;;;16.23;11.55;;;;;;;2.48;63.20;101084.70;1746540;79;21170;-43
2021/01/12 06:03:19;;;;;;;14.53;11.68;;;;;;;2.49;63.17;101082.47;1770515;79;21129;-42
2021/01/12 06:05:49;;;;;;;15.48;11.55;;;;;;;2.47;63.14;101079.44;1766751;79;21130;-43
2021/01/12 06:08:16;;;;;;;19.95;12.28;;;;;;;2.48;63.19;101085.16;1765078;79;21166;-42
2021/01/12 06:10:45;;;;;;;15.43;11.48;;;;;;;2.49;63.17;101077.66;1771123;79;22039;-46
2021/01/12 06:13:17;;;;;;;15.05;11.00;;;;;;;2.46;63.01;101081.21;1767110;79;21190;-46
2021/01/12 06:15:47;;;;;;;17.92;12.33;;;;;;;2.46;62.97;101079.03;1769440;79;21516;-40
2021/01/12 06:18:17;;;;;;;14.90;11.28;;;;;;;2.47;62.91;101081.66;1767704;79;21122;-43
2021/01/12 06:21:13;;;;;;;16.42;11.60;;;;;;;2.47;62.92;101082.97;1772171;79;21558;-41
2021/01/12 06:23:48;;;;;;;14.00;10.48;;;;;;;2.48;62.98;101081.20;1767420;79;21169;-45
2021/01/12 06:26:16;;;;;;;16.48;11.10;;;;;;;2.48;62.97;101071.53;1767527;79;21690;-44
2021/01/12 06:28:43;;;;;;;16.87;12.43;;;;;;;2.47;62.91;101076.81;1744860;80;21146;-44
2021/01/12 06:31:11;;;;;;;15.95;11.45;;;;;;;2.45;63.00;101075.99;1767891;79;21142;-45
2021/01/12 06:33:39;;;;;;;15.38;11.78;;;;;;;2.44;63.09;101076.41;1769134;79;21123;-44
2021/01/12 06:36:07;;;;;;;15.25;11.53;;;;;;;2.45;63.12;101079.48;1702866;82;21153;-45
2021/01/12 06:38:38;;;;;;;13.75;10.40;;;;;;;2.44;63.00;101075.55;1724653;79;21130;-45
2021/01/12 06:41:07;;;;;;;16.82;12.28;;;;;;;2.43;62.99;101077.77;1765846;79;21615;-45
2021/01/12 06:43:35;;;;;;;16.15;11.55;;;;;;;2.41;62.95;101077.78;1762873;79;21134;-45
2021/01/12 06:46:03;;;;;;;18.62;11.12;;;;;;;2.36;62.94;101073.90;1766681;79;21543;-44
2021/01/12 06:48:32;;;;;;;15.70;10.95;;;;;;;2.31;62.82;101075.73;1730008;80;21165;-44
2021/01/12 06:51:03;;;;;;;16.65;10.78;;;;;;;2.26;62.92;101078.88;1696893;80;21177;-44
2021/01/12 06:53:31;;;;;;;16.77;12.05;;;;;;;2.21;62.92;101075.90;1711633;79;21190;-44
2021/01/12 06:56:06;;;;;;;15.95;11.15;;;;;;;2.19;62.99;101076.36;1719629;80;21694;-42
2021/01/12 06:58:33;;;;;;;15.10;10.93;;;;;;;2.16;63.09;101071.56;1769037;79;21149;-45
2021/01/12 07:01:01;;;;;;;16.65;12.03;;;;;;;2.17;63.16;101071.14;1763291;79;21146;-44
2021/01/12 07:03:31;;;;;;;15.43;11.60;;;;;;;2.15;63.15;101071.60;1765388;79;21133;-43
2021/01/12 07:06:00;;;;;;;14.73;11.95;;;;;;;2.11;63.11;101066.81;1761848;80;21142;-44
2021/01/12 07:08:29;;;;;;;15.60;11.40;;;;;;;2.08;63.11;101067.31;1762197;79;21154;-43
2021/01/12 07:11:02;;;;;;;13.30;10.35;;;;;;;2.05;63.15;101062.97;1766369;79;21150;-43
2021/01/12 07:13:36;;;;;;;14.85;10.70;;;;;;;2.06;63.13;101065.14;1766700;79;21163;-42
2021/01/12 07:16:13;;;;;;;15.85;10.63;;;;;;;2.03;63.10;101062.11;1760675;79;21150;-43
2021/01/12 07:18:44;;;;;;;13.70;9.90;;;;;;;2.01;63.19;101059.08;1760443;79;21129;-44
2021/01/12 07:21:33;;;;;;;15.40;10.00;;;;;;;2.00;63.26;101062.16;1763458;79;21154;-43
2021/01/12 07:24:21;;;;;;;14.70;10.80;;;;;;;2.00;63.35;101058.22;1764344;79;21165;-42
2021/01/12 07:28:25;;;;;;;15.48;10.38;;;;;;;1.99;62.67;101064.38;1658488;84;21155;-40
2021/01/12 07:31:46;;;;;;;12.88;9.53;;;;;;;1.93;62.31;101048.21;1836420;77;24146;-39
2021/01/12 07:34:16;;;;;;;10.35;8.35;;;;;;;1.89;62.15;101057.48;1822071;77;21159;-39
2021/01/12 07:36:50;;;;;;;13.15;9.60;;;;;;;1.88;62.03;101056.61;1814783;78;21093;-45
2021/01/12 07:39:23;;;;;;;11.33;8.08;;;;;;;1.87;61.64;101052.25;1822853;77;21104;-43
2021/01/12 07:41:57;;;;;;;12.85;9.88;;;;;;;1.85;61.55;101049.22;1819390;77;21162;-44
2021/01/12 07:44:44;;;;;;;12.93;9.18;;;;;;;1.88;61.58;101052.66;1767717;79;23427;-40
2021/01/12 07:47:13;;;;;;;13.03;9.48;;;;;;;1.85;61.55;101048.77;1735772;80;21106;-38
2021/01/12 07:49:42;;;;;;;15.38;9.78;;;;;;;1.88;61.53;101042.14;1749343;80;21141;-43
2021/01/12 07:52:10;;;;;;;13.65;9.25;;;;;;;1.89;61.49;101045.22;1717169;80;21154;-41
2021/01/12 07:54:37;;;;;;;13.32;9.68;;;;;;;1.86;61.52;101045.23;1731681;80;21649;-43
2021/01/12 07:57:05;;;;;;;13.13;9.58;;;;;;;1.85;61.57;101038.70;1743030;80;21438;-42
2021/01/12 07:59:32;;;;;;;13.05;9.65;;;;;;;1.84;61.66;101043.52;1738258;80;21550;-41
2021/01/12 08:02:01;;;;;;;14.23;9.68;;;;;;;1.84;61.72;101045.73;1704627;80;21177;-41
2021/01/12 08:04:31;;;;;;;14.28;9.85;;;;;;;1.81;61.77;101040.48;1741889;80;21125;-46
2021/01/12 08:07:00;;;;;;;15.25;9.38;;;;;;;1.81;62.01;101040.48;1734760;80;21134;-40
2021/01/12 08:09:27;;;;;;;12.85;9.75;;;;;;;1.84;62.19;101033.89;1737682;80;21153;-45
2021/01/12 08:12:02;;;;;;;15.48;10.65;;;;;;;1.86;62.31;101035.16;1738250;80;21126;-44
2021/01/12 08:14:30;;;;;;;12.98;9.90;;;;;;;1.86;62.18;101039.11;1660119;85;21577;-42
2021/01/12 08:17:00;;;;;;;13.50;9.88;;;;;;;1.82;62.13;101038.30;1671075;83;21169;-40
2021/01/12 08:19:28;;;;;;;13.93;10.50;;;;;;;1.82;62.23;101040.06;1668095;83;21776;-42
2021/01/12 08:21:55;;;;;;;13.10;9.88;;;;;;;1.79;62.20;101038.77;1671745;83;21688;-43
2021/01/12 08:24:24;;;;;;;12.65;9.43;;;;;;;1.76;62.08;101038.81;1672702;83;21152;-41
2021/01/12 08:26:52;;;;;;;12.30;9.38;;;;;;;1.75;62.12;101038.41;1673133;83;21179;-42
2021/01/12 08:29:24;;;;;;;12.50;9.60;;;;;;;1.77;62.18;101034.86;1658304;84;21169;-41
2021/01/12 08:32:02;;;;;;;11.65;9.18;;;;;;;1.76;62.11;101030.92;1676223;83;21619;-43
2021/01/12 08:34:34;;;;;;;12.15;9.18;;;;;;;1.71;61.95;101032.30;1670096;84;21169;-42
2021/01/12 08:37:02;;;;;;;11.60;8.40;;;;;;;1.70;62.03;101030.12;1669929;84;21712;-42
2021/01/12 08:39:30;;;;;;;13.78;9.93;;;;;;;1.71;61.98;101031.88;1670332;84;21558;-46
2021/01/12 08:41:58;;;;;;;12.73;9.00;;;;;;;1.69;61.62;101029.70;1668406;84;21897;-41
2021/01/12 08:44:28;;;;;;;12.53;9.90;;;;;;;1.69;61.52;101022.27;1659608;84;21197;-45
2021/01/12 08:46:55;;;;;;;11.57;8.75;;;;;;;1.68;61.60;101022.69;1657927;84;21712;-43
2021/01/12 08:49:31;;;;;;;12.30;9.75;;;;;;;1.67;61.32;101027.53;1654059;84;21178;-44
2021/01/12 08:51:59;;;;;;;13.08;9.25;;;;;;;1.67;61.37;101023.59;1660391;84;21152;-43
2021/01/12 08:54:27;;;;;;;12.80;8.93;;;;;;;1.71;61.18;101026.62;1655848;84;21169;-40
2021/01/12 08:56:59;;;;;;;10.43;8.10;;;;;;;1.75;61.04;101027.88;1662591;84;21194;-49
2021/01/12 08:59:30;;;;;;;11.33;7.95;;;;;;;1.78;60.91;101021.27;1658864;84;21598;-46
2021/01/12 09:01:59;;;;;;;12.10;8.65;;;;;;;1.81;60.61;101023.84;1655585;84;21791;-42
2021/01/12 09:04:28;;;;;;;12.53;9.03;;;;;;;1.82;60.33;101026.46;1659474;84;21518;-41
2021/01/12 09:07:04;;;;;;;14.03;8.78;;;;;;;1.81;60.14;101027.33;1652605;84;21185;-44
2021/01/12 09:09:32;;;;;;;13.43;9.28;;;;;;;1.79;59.89;101028.25;1653593;84;21488;-44
2021/01/12 09:12:05;;;;;;;16.62;12.70;;;;;;;1.76;59.90;101019.09;1660633;84;22220;-45
2021/01/12 09:14:33;;;;;;;12.78;9.13;;;;;;;1.73;59.72;101014.74;1638131;86;21198;-44
2021/01/12 09:17:04;;;;;;;14.33;9.43;;;;;;;1.71;59.67;101009.94;1616235;84;21206;-42
2021/01/12 09:19:36;;;;;;;13.83;9.13;;;;;;;1.71;59.64;101016.52;1656146;84;21214;-44
2021/01/12 09:24:53;;;;;;;14.55;11.90;;;;;;;1.79;59.42;101008.10;1783122;77;28621;-41
2021/01/12 09:27:28;;;;;;;12.45;10.20;;;;;;;1.76;59.38;101004.17;1773240;79;22188;-43
2021/01/12 09:29:56;;;;;;;13.45;9.08;;;;;;;1.83;58.75;101007.59;1774921;79;21577;-44
2021/01/12 09:32:28;;;;;;;15.35;9.53;;;;;;;1.79;58.63;100992.32;1774015;79;21133;-41
2021/01/12 09:34:57;;;;;;;14.50;9.58;;;;;;;1.79;58.51;100992.32;1780195;79;21133;-42
2021/01/12 09:37:25;;;;;;;13.13;8.73;;;;;;;1.79;58.51;100992.73;1775276;79;21620;-43
2021/01/12 09:39:58;;;;;;;14.60;9.95;;;;;;;1.79;58.05;100983.53;1770220;79;21129;-43
2021/01/12 09:42:27;;;;;;;13.10;9.78;;;;;;;1.75;57.56;100976.59;1774888;79;21835;-44
2021/01/12 09:44:57;;;;;;;14.65;9.95;;;;;;;1.73;57.66;100976.61;1771267;79;21139;-45
2021/01/12 09:47:24;;;;;;;14.43;10.23;;;;;;;1.71;57.46;100970.08;1725505;81;21593;-44
2021/01/12 09:49:52;;;;;;;14.47;9.90;;;;;;;1.73;57.60;100970.03;1703715;82;21177;-43
2021/01/12 09:52:20;;;;;;;15.32;10.55;;;;;;;1.74;57.72;100953.39;1713580;83;21197;-44
2021/01/12 09:54:47;;;;;;;13.80;10.63;;;;;;;1.73;57.63;100947.68;1714770;83;21614;-52
2021/01/12 09:57:15;;;;;;;15.25;10.23;;;;;;;1.72;57.71;100940.24;1713601;83;21165;-40
2021/01/12 09:59:45;;;;;;;15.32;10.48;;;;;;;1.73;57.53;100942.42;1714177;83;21134;-42
2021/01/12 10:02:12;;;;;;;13.35;9.85;;;;;;;1.69;57.69;100937.67;1715989;83;21577;-39
2021/01/12 10:04:40;;;;;;;16.82;11.08;;;;;;;1.71;57.94;100933.68;1713668;83;21609;-41
2021/01/12 10:07:09;;;;;;;14.93;11.35;;;;;;;1.76;58.07;100929.67;1717227;83;21181;-39
2021/01/12 10:09:40;;;;;;;13.80;9.50;;;;;;;1.80;58.12;100923.03;1713819;82;21658;-40
2021/01/12 10:12:09;;;;;;;14.47;9.58;;;;;;;1.79;57.91;100916.05;1715822;82;21121;-43
2021/01/12 10:14:37;;;;;;;14.87;10.38;;;;;;;1.78;57.96;100911.66;1712779;83;21214;-41
2021/01/12 10:17:04;;;;;;;14.90;10.68;;;;;;;1.78;58.07;100906.41;1714609;83;21192;-39
2021/01/12 10:19:32;;;;;;;17.67;11.38;;;;;;;1.79;58.12;100904.21;1713308;82;21181;-40
2021/01/12 10:22:01;;;;;;;13.05;9.93;;;;;;;1.79;57.83;100894.11;1715418;82;21138;-40
2021/01/12 10:24:29;;;;;;;15.65;9.78;;;;;;;1.78;57.83;100892.39;1707476;83;21173;-43
2021/01/12 10:26:58;;;;;;;14.53;9.23;;;;;;;1.77;57.53;100877.06;1704674;82;21135;-41
2021/01/12 10:29:29;;;;;;;13.72;8.95;;;;;;;1.78;57.44;100881.88;1705422;83;21161;-43
2021/01/12 10:31:58;;;;;;;;;;;;;;;1.79;57.09;100875.70;1705003;83;21158;-43
2021/01/12 10:34:26;;;;;;;13.50;9.33;;;;;;;1.80;57.05;100869.57;1705348;83;20170;-41
2021/01/12 10:36:57;;;;;;;11.80;7.87;;;;;;;1.80;57.17;100863.86;1703218;83;21287;-42
2021/01/12 10:39:26;;;;;;;11.75;8.20;;;;;;;1.84;57.15;100860.30;1703003;82;21165;-43
2021/01/12 10:41:55;;;;;;;14.07;8.78;;;;;;;1.84;57.12;100850.20;1731500;81;21173;-42
2021/01/12 10:44:27;;;;;;;14.23;9.10;;;;;;;1.86;56.98;100848.41;1729925;81;21806;-45
2021/01/12 10:46:56;;;;;;;15.18;10.40;;;;;;;1.85;57.01;100836.17;1731176;80;21171;-39
2021/01/12 10:49:26;;;;;;;14.35;9.40;;;;;;;1.86;56.88;100828.69;1732165;81;21555;-40
2021/01/12 10:52:01;;;;;;;15.63;9.43;;;;;;;1.85;56.98;100829.14;1734515;81;21616;-42
2021/01/12 10:54:32;;;;;;;13.15;8.28;;;;;;;1.87;56.92;100837.02;1720590;82;21361;-42
2021/01/12 10:57:00;;;;;;;15.32;8.93;;;;;;;1.88;57.03;100839.60;1719535;82;21604;-39
2021/01/12 10:59:28;;;;;;;13.50;8.88;;;;;;;1.89;57.00;100845.30;1718478;81;21674;-42
2021/01/12 11:01:58;;;;;;;11.57;7.90;;;;;;;1.92;56.99;100844.38;1721233;81;21485;-42
2021/01/12 11:04:27;;;;;;;13.95;8.93;;;;;;;1.93;56.82;100850.05;1724295;81;21161;-41
2021/01/12 11:06:56;;;;;;;12.28;8.60;;;;;;;1.87;56.41;100848.86;1720446;81;21615;-40
2021/01/12 11:09:27;;;;;;;13.70;8.93;;;;;;;1.83;56.66;100845.84;1720373;82;21165;-41
2021/01/12 11:12:04;;;;;;;12.13;8.38;;;;;;;1.84;56.84;100843.20;1718371;82;21143;-40
2021/01/12 11:14:34;;;;;;;12.65;9.40;;;;;;;1.85;56.83;100842.30;1701360;83;21530;-44
2021/01/12 11:17:01;;;;;;;15.20;8.75;;;;;;;1.88;56.91;100838.74;1734838;81;21189;-40
2021/01/12 11:19:30;;;;;;;15.38;8.60;;;;;;;1.90;56.72;100841.77;1731880;81;21295;-40
2021/01/12 11:21:58;;;;;;;15.08;9.18;;;;;;;1.89;56.89;100836.09;1713514;82;21319;-43
2021/01/12 11:24:27;;;;;;;14.95;8.55;;;;;;;1.89;56.52;100845.72;1706199;82;21144;-41
2021/01/12 11:26:55;;;;;;;10.78;6.67;;;;;;;1.85;56.21;100846.23;1736109;82;21712;-40
2021/01/12 11:29:24;;;;;;;10.38;6.55;;;;;;;1.82;56.24;100840.17;1720200;82;21307;-41
2021/01/12 11:31:56;;;;;;;10.55;7.55;;;;;;;1.76;55.93;100829.73;1738580;82;21641;-41
2021/01/12 11:34:25;;;;;;;13.03;8.20;;;;;;;1.70;56.25;100825.00;1733707;82;21342;-41
2021/01/12 11:36:54;;;;;;;12.47;8.55;;;;;;;1.68;56.35;100816.72;1739868;82;21116;-41